createdAt,value
2023-04-27T00:01:08.130Z,7.90
2023-04-27T00:04:11.646Z,9.07
2023-04-27T00:07:14.958Z,8.32
2023-04-27T00:10:18.136Z,8.43
2023-04-27T00:13:21.322Z,7.88
2023-04-27T00:16:25.930Z,7.57
2023-04-27T00:19:30.549Z,8.10
2023-04-27T00:22:33.774Z,7.78
2023-04-27T00:25:36.967Z,8.00
2023-04-27T00:28:40.152Z,7.75
2023-04-27T00:31:44.768Z,7.90
2023-04-27T00:34:48.073Z,8.00
2023-04-27T00:37:51.354Z,8.23
2023-04-27T00:41:01.308Z,8.00
2023-04-27T00:44:04.500Z,8.05
2023-04-27T00:47:09.267Z,7.93
2023-04-27T00:50:12.727Z,8.60
2023-04-27T00:53:16.462Z,7.65
2023-04-27T00:56:19.804Z,8.65
2023-04-27T00:59:23.004Z,8.40
2023-04-27T01:02:30.605Z,8.32
2023-04-27T01:05:33.979Z,9.25
2023-04-27T01:08:37.800Z,10.07
2023-04-27T01:11:40.973Z,10.30
2023-04-27T01:14:44.290Z,10.38
2023-04-27T01:17:49.099Z,9.48
2023-04-27T01:20:53.321Z,10.13
2023-04-27T01:23:58.070Z,9.18
2023-04-27T01:27:01.753Z,10.57
2023-04-27T01:30:06.367Z,10.07
2023-04-27T01:33:09.698Z,10.50
2023-04-27T01:36:12.937Z,10.18
2023-04-27T01:39:17.716Z,9.95
2023-04-27T01:42:20.874Z,10.07
2023-04-27T01:45:24.476Z,10.80
2023-04-27T01:48:27.716Z,10.10
2023-04-27T01:51:30.890Z,10.57
2023-04-27T01:54:35.678Z,10.07
2023-04-27T01:57:38.912Z,10.23
2023-04-27T02:00:42.387Z,10.82
2023-04-27T02:03:50.546Z,10.73
2023-04-27T02:06:54.296Z,11.25
2023-04-27T02:10:01.557Z,11.15
2023-04-27T02:13:08.180Z,11.55
2023-04-27T02:16:11.707Z,11.10
2023-04-27T02:19:17.064Z,12.10
2023-04-27T02:22:20.506Z,12.45
2023-04-27T02:25:25.966Z,12.52
2023-04-27T02:28:29.490Z,12.95
2023-04-27T02:31:33.710Z,12.13
2023-04-27T02:34:40.998Z,12.77
2023-04-27T02:37:44.708Z,11.68
2023-04-27T02:40:56.768Z,12.80
2023-04-27T02:44:00.505Z,12.75
2023-04-27T02:47:18.918Z,11.73
2023-04-27T02:50:22.400Z,13.50
2023-04-27T02:53:32.969Z,12.30
2023-04-27T02:56:45.377Z,12.63
2023-04-27T02:59:53.343Z,13.20
2023-04-27T03:02:57.981Z,12.52
2023-04-27T03:06:04.824Z,12.95
2023-04-27T03:09:18.244Z,12.70
2023-04-27T03:12:24.361Z,13.20
2023-04-27T03:15:28.591Z,12.85
2023-04-27T03:18:31.922Z,12.95
2023-04-27T03:21:35.208Z,14.75
2023-04-27T03:24:38.989Z,13.93
2023-04-27T03:27:43.637Z,13.95
2023-04-27T03:30:48.115Z,14.05
2023-04-27T03:33:51.396Z,15.18
2023-04-27T03:36:54.919Z,14.65
2023-04-27T03:39:58.235Z,14.48
2023-04-27T03:43:03.124Z,14.57
2023-04-27T03:46:06.883Z,14.02
2023-04-27T03:49:10.112Z,14.35
2023-04-27T03:52:13.433Z,15.15
2023-04-27T03:55:16.809Z,15.27
2023-04-27T03:58:22.244Z,17.45
2023-04-27T04:01:49.665Z,16.95
2023-04-27T04:04:53.068Z,17.88
2023-04-27T04:07:56.506Z,17.23
2023-04-27T04:11:02.114Z,17.20
2023-04-27T04:14:07.174Z,16.70
2023-04-27T04:17:11.464Z,17.05
2023-04-27T04:20:17.492Z,16.05
2023-04-27T04:23:20.739Z,18.13
2023-04-27T04:26:25.096Z,17.95
2023-04-27T04:29:29.850Z,16.83
2023-04-27T04:32:33.688Z,14.70
2023-04-27T04:35:39.268Z,15.43
2023-04-27T04:38:42.429Z,13.98
2023-04-27T04:41:45.860Z,14.00
2023-04-27T04:44:54.118Z,14.10
2023-04-27T04:47:57.467Z,14.50
2023-04-27T04:51:01.616Z,14.60
2023-04-27T04:54:06.535Z,14.85
2023-04-27T04:57:10.488Z,13.60
2023-04-27T05:00:19.243Z,13.60
2023-04-27T05:03:23.020Z,12.65
2023-04-27T05:06:26.609Z,12.55
2023-04-27T05:09:29.795Z,12.35
2023-04-27T05:12:32.983Z,12.75
2023-04-27T05:15:38.863Z,12.45
2023-04-27T05:18:42.342Z,11.73
2023-04-27T05:21:45.711Z,11.95
2023-04-27T05:24:48.964Z,12.57
2023-04-27T05:27:52.206Z,12.82
2023-04-27T05:30:56.801Z,12.88
2023-04-27T05:33:59.985Z,11.88
2023-04-27T05:37:07.323Z,11.43
2023-04-27T05:40:16.027Z,10.68
2023-04-27T05:43:19.332Z,11.57
2023-04-27T05:46:24.093Z,10.57
2023-04-27T05:49:27.319Z,11.38
2023-04-27T05:52:31.350Z,12.43
2023-04-27T05:55:35.052Z,12.13
2023-04-27T05:58:38.467Z,11.00
2023-04-27T06:01:47.560Z,10.00
2023-04-27T06:04:50.785Z,9.98
2023-04-27T06:07:54.148Z,9.98
2023-04-27T06:10:57.365Z,9.68
2023-04-27T06:14:00.657Z,9.55
2023-04-27T06:17:05.756Z,9.27
2023-04-27T06:20:10.217Z,7.82
2023-04-27T06:23:13.492Z,8.63
2023-04-27T06:26:16.789Z,7.90
2023-04-27T06:29:19.967Z,6.25
2023-04-27T06:32:24.631Z,6.30
2023-04-27T06:35:27.968Z,6.50
2023-04-27T06:38:32.131Z,6.25
2023-04-27T06:41:35.473Z,7.10
2023-04-27T06:44:38.798Z,6.15
2023-04-27T06:47:43.466Z,6.35
2023-04-27T06:50:46.930Z,6.53
2023-04-27T06:53:50.255Z,6.28
2023-04-27T06:56:54.662Z,5.60
2023-04-27T06:59:58.790Z,4.47
2023-04-27T07:03:03.769Z,4.38
2023-04-27T07:06:07.437Z,4.10
2023-04-27T07:09:23.953Z,4.22
2023-04-27T07:12:31.206Z,21.23
2023-04-27T07:15:34.494Z,3.78
2023-04-27T07:18:40.125Z,3.85
2023-04-27T07:21:44.625Z,3.70
2023-04-27T07:24:48.058Z,4.25
2023-04-27T07:27:52.473Z,3.85
2023-04-27T07:30:55.930Z,3.17
2023-04-27T07:34:01.178Z,3.55
2023-04-27T07:37:05.478Z,3.95
2023-04-27T07:40:16.290Z,4.28
2023-04-27T07:43:20.266Z,3.95
2023-04-27T07:46:23.768Z,3.80
2023-04-27T07:49:29.369Z,3.78
2023-04-27T07:52:32.971Z,4.40
2023-04-27T07:55:36.251Z,3.47
2023-04-27T07:58:39.455Z,3.58
2023-04-27T08:01:43.005Z,3.60
2023-04-27T08:04:48.240Z,3.70
2023-04-27T08:07:54.117Z,2.90
2023-04-27T08:10:57.711Z,3.20
2023-04-27T08:14:01.113Z,3.20
2023-04-27T08:17:04.618Z,3.40
2023-04-27T08:20:11.351Z,8.13
2023-04-27T08:23:14.827Z,2.45
2023-04-27T08:26:18.189Z,2.97
2023-04-27T08:29:28.026Z,2.15
2023-04-27T08:32:32.212Z,1.95
2023-04-27T08:35:36.881Z,2.67
2023-04-27T08:38:40.153Z,2.35
2023-04-27T08:41:44.563Z,1.80
2023-04-27T08:44:47.839Z,2.33
2023-04-27T08:47:51.551Z,2.63
2023-04-27T08:50:58.060Z,2.78
2023-04-27T08:54:01.663Z,2.70
2023-04-27T08:57:10.651Z,2.22
2023-04-27T09:00:15.191Z,2.35
2023-04-27T09:03:24.853Z,3.10
2023-04-27T09:06:33.933Z,3.15
2023-04-27T09:09:37.241Z,3.53
2023-04-27T09:12:40.607Z,3.35
2023-04-27T09:15:46.405Z,3.85
2023-04-27T09:18:52.154Z,3.28
2023-04-27T09:22:06.720Z,3.10
2023-04-27T09:25:10.347Z,3.30
2023-04-27T09:28:16.554Z,3.42
2023-04-27T09:31:20.306Z,3.22
2023-04-27T09:34:23.576Z,3.00
2023-04-27T09:37:28.951Z,2.88
2023-04-27T09:40:33.066Z,3.53
2023-04-27T09:43:37.623Z,2.92
2023-04-27T09:46:43.870Z,3.25
2023-04-27T09:49:50.911Z,3.28
2023-04-27T09:52:55.734Z,3.25
2023-04-27T09:56:12.388Z,3.17
2023-04-27T09:59:45.377Z,3.40
2023-04-27T10:03:00.904Z,3.35
2023-04-27T10:06:53.185Z,3.13
2023-04-27T10:10:03.955Z,3.10
2023-04-27T10:13:08.084Z,2.70
2023-04-27T10:16:17.685Z,3.20
2023-04-27T10:19:21.806Z,3.27
2023-04-27T10:22:26.239Z,3.20
2023-04-27T10:25:38.647Z,2.85
2023-04-27T10:28:42.482Z,3.30
2023-04-27T10:31:46.794Z,3.42
2023-04-27T10:34:50.888Z,2.88
2023-04-27T10:37:54.114Z,3.60
2023-04-27T10:41:01.582Z,3.28
2023-04-27T10:44:19.071Z,3.10
2023-04-27T10:47:23.780Z,4.00
2023-04-27T10:50:27.525Z,2.88
2023-04-27T10:53:35.861Z,3.17
2023-04-27T10:56:40.799Z,2.60
2023-04-27T10:59:55.525Z,2.75
2023-04-27T11:03:11.571Z,2.72
2023-04-27T11:06:15.217Z,3.92
2023-04-27T11:09:27.892Z,2.67
2023-04-27T11:12:33.889Z,2.85
2023-04-27T11:15:48.832Z,2.78
2023-04-27T11:18:52.185Z,2.83
2023-04-27T11:22:04.437Z,3.05
2023-04-27T11:25:08.501Z,3.03
2023-04-27T11:28:20.433Z,2.67
2023-04-27T11:31:23.958Z,2.85
2023-04-27T11:34:27.525Z,3.15
2023-04-27T11:37:31.676Z,3.15
2023-04-27T11:40:37.430Z,3.30
2023-04-27T11:43:46.246Z,3.00
2023-04-27T11:46:49.627Z,3.00
2023-04-27T11:49:53.933Z,2.83
2023-04-27T11:53:02.017Z,2.70
2023-04-27T11:56:06.643Z,2.80
2023-04-27T11:59:21.957Z,2.60
2023-04-27T12:02:25.812Z,2.30
2023-04-27T12:05:29.575Z,2.50
2023-04-27T12:08:32.914Z,3.00
2023-04-27T12:11:36.177Z,3.17
2023-04-27T12:14:41.432Z,3.10
2023-04-27T12:17:44.625Z,3.08
2023-04-27T12:20:47.878Z,3.28
2023-04-27T12:23:51.630Z,3.05
2023-04-27T12:26:55.008Z,3.53
2023-04-27T12:30:00.505Z,3.70
2023-04-27T12:33:09.624Z,3.60
2023-04-27T12:36:12.957Z,3.70
2023-04-27T12:39:18.269Z,3.80
2023-04-27T12:42:24.114Z,3.83
2023-04-27T12:45:28.842Z,3.65
2023-04-27T12:48:33.454Z,3.92
2023-04-27T12:51:37.377Z,4.38
2023-04-27T12:54:41.074Z,3.97
2023-04-27T12:57:44.307Z,3.92
2023-04-27T13:00:48.929Z,3.90
2023-04-27T13:03:53.780Z,4.35
2023-04-27T13:06:59.722Z,4.00
2023-04-27T13:10:03.101Z,3.90
2023-04-27T13:13:07.034Z,4.10
2023-04-27T13:16:12.340Z,4.38
2023-04-27T13:19:15.806Z,4.00
2023-04-27T13:22:19.103Z,5.68
2023-04-27T13:25:22.540Z,4.40
2023-04-27T13:28:26.242Z,4.75
2023-04-27T13:31:31.759Z,5.38
2023-04-27T13:34:35.885Z,4.43
2023-04-27T13:37:39.999Z,4.57
2023-04-27T13:40:43.218Z,4.20
2023-04-27T13:43:46.814Z,3.90
2023-04-27T13:46:51.506Z,3.88
2023-04-27T13:49:55.008Z,4.35
2023-04-27T13:52:58.680Z,3.80
2023-04-27T13:56:01.970Z,3.67
2023-04-27T13:59:05.387Z,4.05
2023-04-27T14:02:10.363Z,5.90
2023-04-27T14:05:13.731Z,6.15
2023-04-27T14:08:17.279Z,6.68
2023-04-27T14:11:20.704Z,7.20
2023-04-27T14:14:24.622Z,7.03
2023-04-27T14:17:29.397Z,7.53
2023-04-27T14:20:32.942Z,7.90
2023-04-27T14:23:36.518Z,7.90
2023-04-27T14:26:43.799Z,7.75
2023-04-27T14:29:47.067Z,8.13
2023-04-27T14:32:51.723Z,7.88
2023-04-27T14:35:56.053Z,8.20
2023-04-27T14:38:59.390Z,6.95
2023-04-27T14:42:04.078Z,5.93
2023-04-27T14:45:08.451Z,5.90
2023-04-27T14:48:13.197Z,5.82
2023-04-27T14:51:17.116Z,6.78
2023-04-27T14:54:20.374Z,7.70
2023-04-27T14:57:23.700Z,8.23
2023-04-27T15:00:27.027Z,9.05
2023-04-27T15:03:32.646Z,8.63
2023-04-27T15:06:36.151Z,8.85
2023-04-27T15:09:39.782Z,9.57
2023-04-27T15:12:43.032Z,9.23
2023-04-27T15:15:47.964Z,10.77
2023-04-27T15:18:52.815Z,7.47
2023-04-27T15:21:56.736Z,13.52
2023-04-27T15:24:59.938Z,17.10
2023-04-27T15:28:03.658Z,10.75
2023-04-27T15:31:06.904Z,5.78
2023-04-27T15:34:11.599Z,4.22
2023-04-27T15:37:15.164Z,4.90
2023-04-27T15:40:18.721Z,5.25
2023-04-27T15:43:22.090Z,5.30
2023-04-27T15:46:26.153Z,5.95
2023-04-27T15:49:31.783Z,6.40
2023-04-27T15:52:37.768Z,6.95
2023-04-27T15:55:41.184Z,7.53
2023-04-27T15:58:44.437Z,9.57
2023-04-27T16:01:48.160Z,9.60
2023-04-27T16:04:56.544Z,7.88
2023-04-27T16:07:59.870Z,7.95
2023-04-27T16:11:04.422Z,8.15
2023-04-27T16:14:07.725Z,8.77
2023-04-27T16:17:10.983Z,6.80
2023-04-27T16:20:15.619Z,7.30
2023-04-27T16:23:18.888Z,7.50
2023-04-27T16:26:22.724Z,8.25
2023-04-27T16:29:26.312Z,9.13
2023-04-27T16:32:29.678Z,10.35
2023-04-27T16:35:34.661Z,10.07
2023-04-27T16:38:39.399Z,10.20
2023-04-27T16:41:43.198Z,9.25
2023-04-27T16:44:46.760Z,23.13
2023-04-27T16:47:50.166Z,18.05
2023-04-27T16:50:55.790Z,17.10
2023-04-27T16:53:59.587Z,13.80
2023-04-27T16:57:03.080Z,14.10
2023-04-27T17:00:09.621Z,24.95
2023-04-27T17:03:12.987Z,22.60
2023-04-27T17:06:18.003Z,20.15
2023-04-27T17:09:21.284Z,17.40
2023-04-27T17:12:24.677Z,11.27
2023-04-27T17:15:28.778Z,12.73
2023-04-27T17:18:33.794Z,14.43
2023-04-27T17:21:38.546Z,16.63
2023-04-27T17:24:41.830Z,20.58
2023-04-27T17:27:45.625Z,21.33
2023-04-27T17:30:49.058Z,16.85
2023-04-27T17:33:53.253Z,13.50
2023-04-27T17:36:58.503Z,13.38
2023-04-27T17:40:01.975Z,11.38
2023-04-27T17:43:05.322Z,10.70
2023-04-27T17:46:09.768Z,11.38
2023-04-27T17:49:13.322Z,10.55
2023-04-27T17:52:18.063Z,10.70
2023-04-27T17:55:21.349Z,10.75
2023-04-27T17:58:24.885Z,11.23
2023-04-27T18:01:28.751Z,11.02
2023-04-27T18:04:32.266Z,11.75
2023-04-27T18:07:37.815Z,12.23
2023-04-27T18:10:41.344Z,11.70
2023-04-27T18:13:45.407Z,12.30
2023-04-27T18:16:49.064Z,11.73
2023-04-27T18:20:04.355Z,13.25
2023-04-27T18:23:13.269Z,15.27
2023-04-27T18:26:17.397Z,21.02
2023-04-27T18:29:20.914Z,30.35
2023-04-27T18:32:24.620Z,33.90
2023-04-27T18:35:29.027Z,41.97
2023-04-27T18:38:34.991Z,46.15
2023-04-27T18:41:40.004Z,46.10
2023-04-27T18:44:43.701Z,38.80
2023-04-27T18:47:48.615Z,41.00
2023-04-27T18:50:52.904Z,36.45
2023-04-27T18:53:58.813Z,33.03
2023-04-27T18:57:04.729Z,37.53
2023-04-27T19:00:11.665Z,39.53
2023-04-27T19:03:17.462Z,36.33
2023-04-27T19:06:21.901Z,40.53
2023-04-27T19:09:29.578Z,44.72
2023-04-27T19:12:35.989Z,37.55
2023-04-27T19:15:41.989Z,40.95
2023-04-27T19:18:47.496Z,42.40
2023-04-27T19:21:58.155Z,43.30
2023-04-27T19:25:05.981Z,30.65
2023-04-27T19:28:11.955Z,28.30
2023-04-27T19:31:18.875Z,26.77
2023-04-27T19:34:24.390Z,27.88
2023-04-27T19:37:32.152Z,27.20
2023-04-27T19:40:39.788Z,23.45
2023-04-27T19:43:47.773Z,22.63
2023-04-27T19:46:54.397Z,21.55
2023-04-27T19:50:00.382Z,20.75
2023-04-27T19:53:05.038Z,21.98
2023-04-27T19:56:10.208Z,26.25
2023-04-27T19:59:16.811Z,27.35
2023-04-27T20:02:21.734Z,27.80
2023-04-27T20:05:25.977Z,28.42
2023-04-27T20:08:30.616Z,31.13
2023-04-27T20:11:35.698Z,33.65
2023-04-27T20:14:39.349Z,34.15
2023-04-27T20:17:43.060Z,34.00
2023-04-27T20:20:46.396Z,35.83
2023-04-27T20:23:50.898Z,34.35
2023-04-27T20:26:55.890Z,34.35
2023-04-27T20:30:00.576Z,33.17
2023-04-27T20:33:04.574Z,32.00
2023-04-27T20:36:17.282Z,26.20
2023-04-27T20:39:24.091Z,25.50
2023-04-27T20:42:29.682Z,25.15
2023-04-27T20:45:33.085Z,24.10
2023-04-27T20:48:36.596Z,24.52
2023-04-27T20:51:39.969Z,25.48
2023-04-27T20:54:43.273Z,24.52
2023-04-27T20:57:47.996Z,25.85
2023-04-27T21:00:51.482Z,26.70
2023-04-27T21:03:54.919Z,26.10
2023-04-27T21:06:58.224Z,26.90
2023-04-27T21:10:05.976Z,26.15
2023-04-27T21:13:10.585Z,26.05
2023-04-27T21:16:13.834Z,26.73
2023-04-27T21:19:17.596Z,25.73
2023-04-27T21:22:21.518Z,26.10
2023-04-27T21:25:24.710Z,25.13
2023-04-27T21:28:29.367Z,25.25
2023-04-27T21:31:32.991Z,25.33
2023-04-27T21:34:36.932Z,25.05
2023-04-27T21:37:40.265Z,25.65
2023-04-27T21:40:43.567Z,26.52
2023-04-27T21:43:48.126Z,25.90
2023-04-27T21:46:51.883Z,25.00
2023-04-27T21:49:55.797Z,27.05
2023-04-27T21:52:59.114Z,25.67
2023-04-27T21:56:02.313Z,25.92
2023-04-27T21:59:08.032Z,25.55
2023-04-27T22:02:11.269Z,24.77
2023-04-27T22:05:14.493Z,26.13
2023-04-27T22:08:18.289Z,24.85
2023-04-27T22:11:21.570Z,24.95
2023-04-27T22:14:26.208Z,25.77
2023-04-27T22:17:29.458Z,25.13
2023-04-27T22:20:32.912Z,25.55
2023-04-27T22:23:36.126Z,23.45
2023-04-27T22:26:39.454Z,23.35
2023-04-27T22:29:44.001Z,24.38
2023-04-27T22:32:47.363Z,25.17
2023-04-27T22:35:50.742Z,26.70
2023-04-27T22:38:53.993Z,26.08
2023-04-27T22:41:57.228Z,24.85
2023-04-27T22:45:01.803Z,25.95
2023-04-27T22:48:06.049Z,24.70
2023-04-27T22:51:10.111Z,25.17
2023-04-27T22:54:13.459Z,23.83
2023-04-27T22:57:16.875Z,25.42
2023-04-27T23:00:21.860Z,25.85
2023-04-27T23:03:25.229Z,24.65
2023-04-27T23:06:28.567Z,23.98
2023-04-27T23:09:33.061Z,25.08
2023-04-27T23:12:36.559Z,23.98
2023-04-27T23:15:41.097Z,23.30
2023-04-27T23:18:44.284Z,21.70
2023-04-27T23:21:47.472Z,22.95
2023-04-27T23:24:50.732Z,21.65
2023-04-27T23:27:53.931Z,22.05
2023-04-27T23:30:58.817Z,21.02
2023-04-27T23:34:02.058Z,20.80
2023-04-27T23:37:05.218Z,20.35
2023-04-27T23:40:10.098Z,20.48
2023-04-27T23:43:13.291Z,20.20
2023-04-27T23:46:17.912Z,21.02
2023-04-27T23:49:21.153Z,21.73
2023-04-27T23:52:24.474Z,21.60
2023-04-27T23:55:27.677Z,21.08
2023-04-27T23:58:30.911Z,19.33
